sensor_id;sensor_type;location;lat;lon;timestamp;temperature;humidity
16829;DHT22;8531;48.078;11.968;2023-08-06T00:00:19;15.00;99.90
16829;DHT22;8531;48.078;11.968;2023-08-06T00:02:45;14.90;99.90
16829;DHT22;8531;48.078;11.968;2023-08-06T00:05:11;14.90;99.90
16829;DHT22;8531;48.078;11.968;2023-08-06T00:07:36;14.80;99.90
16829;DHT22;8531;48.078;11.968;2023-08-06T00:10:02;14.90;99.90
16829;DHT22;8531;48.078;11.968;2023-08-06T00:12:28;14.90;99.90
16829;DHT22;8531;48.078;11.968;2023-08-06T00:14:54;15.00;99.90
16829;DHT22;8531;48.078;11.968;2023-08-06T00:17:20;15.00;99.90
16829;DHT22;8531;48.078;11.968;2023-08-06T00:19:45;14.90;99.90
16829;DHT22;8531;48.078;11.968;2023-08-06T00:22:11;15.00;99.90
16829;DHT22;8531;48.078;11.968;2023-08-06T00:24:37;15.00;99.90
16829;DHT22;8531;48.078;11.968;2023-08-06T00:27:03;15.00;99.90
16829;DHT22;8531;48.078;11.968;2023-08-06T00:29:28;15.10;99.90
16829;DHT22;8531;48.078;11.968;2023-08-06T00:31:54;15.00;99.90
16829;DHT22;8531;48.078;11.968;2023-08-06T00:34:20;15.10;99.90
16829;DHT22;8531;48.078;11.968;2023-08-06T00:36:46;15.00;99.90
16829;DHT22;8531;48.078;11.968;2023-08-06T00:39:11;15.00;99.90
16829;DHT22;8531;48.078;11.968;2023-08-06T00:41:37;15.00;99.90
16829;DHT22;8531;48.078;11.968;2023-08-06T00:44:03;15.00;99.90
16829;DHT22;8531;48.078;11.968;2023-08-06T00:46:29;15.00;99.90
16829;DHT22;8531;48.078;11.968;2023-08-06T00:48:55;14.90;99.90
16829;DHT22;8531;48.078;11.968;2023-08-06T00:51:22;14.90;99.90
16829;DHT22;8531;48.078;11.968;2023-08-06T00:53:49;14.90;99.90
16829;DHT22;8531;48.078;11.968;2023-08-06T00:56:15;14.90;99.90
16829;DHT22;8531;48.078;11.968;2023-08-06T00:58:41;14.90;99.90
16829;DHT22;8531;48.078;11.968;2023-08-06T01:01:07;14.80;99.90
16829;DHT22;8531;48.078;11.968;2023-08-06T01:03:33;14.90;99.90
16829;DHT22;8531;48.078;11.968;2023-08-06T01:05:59;14.80;99.90
16829;DHT22;8531;48.078;11.968;2023-08-06T01:13:47;14.90;99.90
16829;DHT22;8531;48.078;11.968;2023-08-06T01:16:19;14.90;99.90
16829;DHT22;8531;48.078;11.968;2023-08-06T01:18:47;14.80;99.90
16829;DHT22;8531;48.078;11.968;2023-08-06T01:21:15;14.80;99.90
16829;DHT22;8531;48.078;11.968;2023-08-06T01:23:42;14.90;99.90
16829;DHT22;8531;48.078;11.968;2023-08-06T01:26:19;14.80;99.90
16829;DHT22;8531;48.078;11.968;2023-08-06T01:31:36;14.80;99.90
16829;DHT22;8531;48.078;11.968;2023-08-06T01:34:06;14.80;99.90
16829;DHT22;8531;48.078;11.968;2023-08-06T01:36:32;14.70;99.90
16829;DHT22;8531;48.078;11.968;2023-08-06T01:38:59;14.70;99.90
16829;DHT22;8531;48.078;11.968;2023-08-06T01:41:25;14.70;99.90
16829;DHT22;8531;48.078;11.968;2023-08-06T01:43:50;14.80;99.90
16829;DHT22;8531;48.078;11.968;2023-08-06T01:46:16;14.70;99.90
16829;DHT22;8531;48.078;11.968;2023-08-06T01:48:42;14.70;99.90
16829;DHT22;8531;48.078;11.968;2023-08-06T01:51:08;14.70;99.90
16829;DHT22;8531;48.078;11.968;2023-08-06T01:53:34;14.70;99.90
16829;DHT22;8531;48.078;11.968;2023-08-06T01:55:59;14.70;99.90
16829;DHT22;8531;48.078;11.968;2023-08-06T01:58:25;14.70;99.90
16829;DHT22;8531;48.078;11.968;2023-08-06T02:00:51;14.60;99.90
16829;DHT22;8531;48.078;11.968;2023-08-06T02:03:16;14.50;99.90
16829;DHT22;8531;48.078;11.968;2023-08-06T02:05:42;14.40;99.90
16829;DHT22;8531;48.078;11.968;2023-08-06T02:08:08;14.50;99.90
16829;DHT22;8531;48.078;11.968;2023-08-06T02:10:34;14.40;99.90
16829;DHT22;8531;48.078;11.968;2023-08-06T02:12:59;14.40;99.90
16829;DHT22;8531;48.078;11.968;2023-08-06T02:15:25;14.40;99.90
16829;DHT22;8531;48.078;11.968;2023-08-06T02:17:51;14.40;99.90
16829;DHT22;8531;48.078;11.968;2023-08-06T02:20:16;14.40;99.90
16829;DHT22;8531;48.078;11.968;2023-08-06T02:22:42;14.40;99.90
16829;DHT22;8531;48.078;11.968;2023-08-06T02:25:08;14.40;99.90
16829;DHT22;8531;48.078;11.968;2023-08-06T02:27:33;14.50;99.90
16829;DHT22;8531;48.078;11.968;2023-08-06T02:29:59;14.40;99.90
16829;DHT22;8531;48.078;11.968;2023-08-06T02:32:25;14.40;99.90
16829;DHT22;8531;48.078;11.968;2023-08-06T02:34:51;14.40;99.90
16829;DHT22;8531;48.078;11.968;2023-08-06T02:37:16;14.40;99.90
16829;DHT22;8531;48.078;11.968;2023-08-06T02:39:42;14.40;99.90
16829;DHT22;8531;48.078;11.968;2023-08-06T02:42:09;14.30;99.90
16829;DHT22;8531;48.078;11.968;2023-08-06T02:44:35;14.20;99.90
16829;DHT22;8531;48.078;11.968;2023-08-06T02:47:01;14.20;99.90
16829;DHT22;8531;48.078;11.968;2023-08-06T02:49:27;14.20;99.90
16829;DHT22;8531;48.078;11.968;2023-08-06T02:51:52;14.20;99.90
16829;DHT22;8531;48.078;11.968;2023-08-06T02:54:19;14.20;99.90
16829;DHT22;8531;48.078;11.968;2023-08-06T02:56:47;14.20;99.90
16829;DHT22;8531;48.078;11.968;2023-08-06T02:59:13;14.20;99.90
16829;DHT22;8531;48.078;11.968;2023-08-06T03:01:39;14.20;99.90
16829;DHT22;8531;48.078;11.968;2023-08-06T03:04:06;14.20;99.90
16829;DHT22;8531;48.078;11.968;2023-08-06T03:06:31;14.10;99.90
16829;DHT22;8531;48.078;11.968;2023-08-06T03:08:57;14.10;99.90
16829;DHT22;8531;48.078;11.968;2023-08-06T03:11:23;14.10;99.90
16829;DHT22;8531;48.078;11.968;2023-08-06T03:13:49;14.10;99.90
16829;DHT22;8531;48.078;11.968;2023-08-06T03:16:14;14.00;99.90
16829;DHT22;8531;48.078;11.968;2023-08-06T03:18:40;14.00;99.90
16829;DHT22;8531;48.078;11.968;2023-08-06T03:21:06;14.00;99.90
16829;DHT22;8531;48.078;11.968;2023-08-06T03:23:31;14.00;99.90
16829;DHT22;8531;48.078;11.968;2023-08-06T03:26:03;14.00;99.90
16829;DHT22;8531;48.078;11.968;2023-08-06T03:28:29;14.00;99.90
16829;DHT22;8531;48.078;11.968;2023-08-06T03:31:04;14.00;99.90
16829;DHT22;8531;48.078;11.968;2023-08-06T03:33:30;14.10;99.90
16829;DHT22;8531;48.078;11.968;2023-08-06T03:35:56;14.00;99.90
16829;DHT22;8531;48.078;11.968;2023-08-06T03:38:22;14.00;99.90
16829;DHT22;8531;48.078;11.968;2023-08-06T03:40:48;14.00;99.90
16829;DHT22;8531;48.078;11.968;2023-08-06T03:43:14;14.00;99.90
16829;DHT22;8531;48.078;11.968;2023-08-06T03:45:43;14.00;99.90
16829;DHT22;8531;48.078;11.968;2023-08-06T03:48:08;14.00;99.90
16829;DHT22;8531;48.078;11.968;2023-08-06T03:50:34;14.00;99.90
16829;DHT22;8531;48.078;11.968;2023-08-06T03:53:01;14.00;99.90
16829;DHT22;8531;48.078;11.968;2023-08-06T03:55:26;14.00;99.90
16829;DHT22;8531;48.078;11.968;2023-08-06T03:57:52;14.00;99.90
16829;DHT22;8531;48.078;11.968;2023-08-06T04:00:18;14.00;99.90
16829;DHT22;8531;48.078;11.968;2023-08-06T04:02:43;13.90;99.90
16829;DHT22;8531;48.078;11.968;2023-08-06T04:05:09;13.90;99.90
16829;DHT22;8531;48.078;11.968;2023-08-06T04:07:35;13.90;99.90
16829;DHT22;8531;48.078;11.968;2023-08-06T04:10:03;13.90;99.90
16829;DHT22;8531;48.078;11.968;2023-08-06T04:12:29;13.90;99.90
16829;DHT22;8531;48.078;11.968;2023-08-06T04:14:57;13.80;99.90
16829;DHT22;8531;48.078;11.968;2023-08-06T04:17:22;13.80;99.90
16829;DHT22;8531;48.078;11.968;2023-08-06T04:19:53;13.80;99.90
16829;DHT22;8531;48.078;11.968;2023-08-06T04:22:20;13.80;99.90
16829;DHT22;8531;48.078;11.968;2023-08-06T04:24:46;13.70;99.90
16829;DHT22;8531;48.078;11.968;2023-08-06T04:27:13;13.70;99.90
16829;DHT22;8531;48.078;11.968;2023-08-06T04:29:39;13.70;99.90
16829;DHT22;8531;48.078;11.968;2023-08-06T04:32:07;13.80;99.90
16829;DHT22;8531;48.078;11.968;2023-08-06T04:34:33;13.70;99.90
16829;DHT22;8531;48.078;11.968;2023-08-06T04:36:59;13.70;99.90
16829;DHT22;8531;48.078;11.968;2023-08-06T04:39:25;13.70;99.90
16829;DHT22;8531;48.078;11.968;2023-08-06T04:41:51;13.70;99.90
16829;DHT22;8531;48.078;11.968;2023-08-06T04:44:17;13.60;99.90
16829;DHT22;8531;48.078;11.968;2023-08-06T04:46:42;13.60;99.90
16829;DHT22;8531;48.078;11.968;2023-08-06T04:49:08;13.60;99.90
16829;DHT22;8531;48.078;11.968;2023-08-06T04:51:34;13.60;99.90
16829;DHT22;8531;48.078;11.968;2023-08-06T04:53:59;13.60;99.90
16829;DHT22;8531;48.078;11.968;2023-08-06T04:56:25;13.60;99.90
16829;DHT22;8531;48.078;11.968;2023-08-06T04:58:51;13.60;99.90
16829;DHT22;8531;48.078;11.968;2023-08-06T05:01:16;13.50;99.90
16829;DHT22;8531;48.078;11.968;2023-08-06T05:03:42;13.60;99.90
16829;DHT22;8531;48.078;11.968;2023-08-06T05:06:08;13.60;99.90
16829;DHT22;8531;48.078;11.968;2023-08-06T05:08:34;13.60;99.90
16829;DHT22;8531;48.078;11.968;2023-08-06T05:10:59;13.60;99.90
16829;DHT22;8531;48.078;11.968;2023-08-06T05:13:25;13.70;99.90
16829;DHT22;8531;48.078;11.968;2023-08-06T05:15:53;13.70;99.90
16829;DHT22;8531;48.078;11.968;2023-08-06T05:18:18;13.70;99.90
16829;DHT22;8531;48.078;11.968;2023-08-06T05:20:44;13.80;99.90
16829;DHT22;8531;48.078;11.968;2023-08-06T05:23:10;13.80;99.90
16829;DHT22;8531;48.078;11.968;2023-08-06T05:25:36;13.90;99.90
16829;DHT22;8531;48.078;11.968;2023-08-06T05:28:03;13.90;99.90
16829;DHT22;8531;48.078;11.968;2023-08-06T05:30:28;14.00;99.90
16829;DHT22;8531;48.078;11.968;2023-08-06T05:32:54;14.10;99.90
16829;DHT22;8531;48.078;11.968;2023-08-06T05:35:21;14.20;99.90
16829;DHT22;8531;48.078;11.968;2023-08-06T05:37:47;14.20;99.90
16829;DHT22;8531;48.078;11.968;2023-08-06T05:40:13;14.30;99.90
16829;DHT22;8531;48.078;11.968;2023-08-06T05:42:39;14.40;99.90
16829;DHT22;8531;48.078;11.968;2023-08-06T05:45:06;14.50;99.90
16829;DHT22;8531;48.078;11.968;2023-08-06T05:47:32;14.50;99.90
16829;DHT22;8531;48.078;11.968;2023-08-06T05:49:57;14.60;99.90
16829;DHT22;8531;48.078;11.968;2023-08-06T05:52:23;14.50;99.90
16829;DHT22;8531;48.078;11.968;2023-08-06T05:54:49;14.60;99.90
16829;DHT22;8531;48.078;11.968;2023-08-06T05:57:15;14.70;99.90
16829;DHT22;8531;48.078;11.968;2023-08-06T05:59:41;14.70;99.90
16829;DHT22;8531;48.078;11.968;2023-08-06T06:02:07;14.70;99.90
16829;DHT22;8531;48.078;11.968;2023-08-06T06:04:33;14.70;99.90
16829;DHT22;8531;48.078;11.968;2023-08-06T06:06:59;14.80;99.90
16829;DHT22;8531;48.078;11.968;2023-08-06T06:09:24;14.80;99.90
16829;DHT22;8531;48.078;11.968;2023-08-06T06:11:50;14.90;99.90
16829;DHT22;8531;48.078;11.968;2023-08-06T06:14:19;14.90;99.90
16829;DHT22;8531;48.078;11.968;2023-08-06T06:16:45;14.80;99.90
16829;DHT22;8531;48.078;11.968;2023-08-06T06:19:11;14.80;99.90
16829;DHT22;8531;48.078;11.968;2023-08-06T06:21:37;14.70;99.90
16829;DHT22;8531;48.078;11.968;2023-08-06T06:24:04;14.70;99.90
16829;DHT22;8531;48.078;11.968;2023-08-06T06:26:31;14.70;99.90
16829;DHT22;8531;48.078;11.968;2023-08-06T06:28:57;14.70;99.90
16829;DHT22;8531;48.078;11.968;2023-08-06T06:31:23;14.60;99.90
16829;DHT22;8531;48.078;11.968;2023-08-06T06:33:48;14.70;99.90
16829;DHT22;8531;48.078;11.968;2023-08-06T06:36:14;14.60;99.90
16829;DHT22;8531;48.078;11.968;2023-08-06T06:38:40;14.60;99.90
16829;DHT22;8531;48.078;11.968;2023-08-06T06:41:05;14.70;99.90
16829;DHT22;8531;48.078;11.968;2023-08-06T06:43:32;14.60;99.90
16829;DHT22;8531;48.078;11.968;2023-08-06T06:45:59;14.70;99.90
16829;DHT22;8531;48.078;11.968;2023-08-06T06:48:26;14.70;99.90
16829;DHT22;8531;48.078;11.968;2023-08-06T06:50:52;14.70;99.90
16829;DHT22;8531;48.078;11.968;2023-08-06T06:53:18;14.70;99.90
16829;DHT22;8531;48.078;11.968;2023-08-06T06:55:44;14.70;99.90
16829;DHT22;8531;48.078;11.968;2023-08-06T06:58:09;14.80;99.90
16829;DHT22;8531;48.078;11.968;2023-08-06T07:00:36;14.80;99.90
16829;DHT22;8531;48.078;11.968;2023-08-06T07:03:02;14.90;99.90
16829;DHT22;8531;48.078;11.968;2023-08-06T07:05:28;15.00;99.90
16829;DHT22;8531;48.078;11.968;2023-08-06T07:07:53;15.10;99.90
16829;DHT22;8531;48.078;11.968;2023-08-06T07:10:19;15.20;99.90
16829;DHT22;8531;48.078;11.968;2023-08-06T07:12:45;15.20;99.90
16829;DHT22;8531;48.078;11.968;2023-08-06T07:15:11;15.40;99.90
16829;DHT22;8531;48.078;11.968;2023-08-06T07:17:36;15.50;99.90
16829;DHT22;8531;48.078;11.968;2023-08-06T07:20:02;15.60;99.90
16829;DHT22;8531;48.078;11.968;2023-08-06T07:22:28;15.70;99.90
16829;DHT22;8531;48.078;11.968;2023-08-06T07:24:54;15.70;99.90
16829;DHT22;8531;48.078;11.968;2023-08-06T07:27:19;15.80;99.90
16829;DHT22;8531;48.078;11.968;2023-08-06T07:29:45;15.90;99.90
16829;DHT22;8531;48.078;11.968;2023-08-06T07:32:11;16.00;99.90
16829;DHT22;8531;48.078;11.968;2023-08-06T07:34:36;16.00;99.90
16829;DHT22;8531;48.078;11.968;2023-08-06T07:37:02;16.30;99.90
16829;DHT22;8531;48.078;11.968;2023-08-06T07:39:28;16.50;99.90
16829;DHT22;8531;48.078;11.968;2023-08-06T07:41:54;16.60;99.90
16829;DHT22;8531;48.078;11.968;2023-08-06T07:44:19;16.70;99.90
16829;DHT22;8531;48.078;11.968;2023-08-06T07:46:45;16.80;99.90
16829;DHT22;8531;48.078;11.968;2023-08-06T07:49:11;16.80;99.90
16829;DHT22;8531;48.078;11.968;2023-08-06T07:51:37;16.70;99.90
16829;DHT22;8531;48.078;11.968;2023-08-06T07:54:02;16.50;99.90
16829;DHT22;8531;48.078;11.968;2023-08-06T07:56:28;16.40;99.90
16829;DHT22;8531;48.078;11.968;2023-08-06T07:58:54;16.20;99.90
16829;DHT22;8531;48.078;11.968;2023-08-06T08:01:20;16.10;99.90
16829;DHT22;8531;48.078;11.968;2023-08-06T08:03:45;16.10;99.90
16829;DHT22;8531;48.078;11.968;2023-08-06T08:06:11;15.90;99.90
16829;DHT22;8531;48.078;11.968;2023-08-06T08:08:37;15.90;99.90
16829;DHT22;8531;48.078;11.968;2023-08-06T08:11:04;15.90;99.90
16829;DHT22;8531;48.078;11.968;2023-08-06T08:13:30;16.00;99.90
16829;DHT22;8531;48.078;11.968;2023-08-06T08:15:57;15.90;99.90
16829;DHT22;8531;48.078;11.968;2023-08-06T08:18:23;15.90;99.90
16829;DHT22;8531;48.078;11.968;2023-08-06T08:20:49;15.90;99.90
16829;DHT22;8531;48.078;11.968;2023-08-06T08:23:15;15.90;99.90
16829;DHT22;8531;48.078;11.968;2023-08-06T08:25:40;16.00;99.90
16829;DHT22;8531;48.078;11.968;2023-08-06T08:28:07;16.00;99.90
16829;DHT22;8531;48.078;11.968;2023-08-06T08:30:33;16.10;99.90
16829;DHT22;8531;48.078;11.968;2023-08-06T08:32:58;16.20;99.90
16829;DHT22;8531;48.078;11.968;2023-08-06T08:35:24;16.30;99.90
16829;DHT22;8531;48.078;11.968;2023-08-06T08:37:50;16.50;99.90
16829;DHT22;8531;48.078;11.968;2023-08-06T08:40:16;17.00;99.90
16829;DHT22;8531;48.078;11.968;2023-08-06T08:42:42;17.40;99.90
16829;DHT22;8531;48.078;11.968;2023-08-06T08:45:15;17.90;99.90
16829;DHT22;8531;48.078;11.968;2023-08-06T08:47:44;18.30;99.90
16829;DHT22;8531;48.078;11.968;2023-08-06T08:50:11;18.20;99.90
16829;DHT22;8531;48.078;11.968;2023-08-06T08:52:38;18.00;99.90
16829;DHT22;8531;48.078;11.968;2023-08-06T08:55:07;17.70;99.90
16829;DHT22;8531;48.078;11.968;2023-08-06T08:57:33;17.70;99.90
16829;DHT22;8531;48.078;11.968;2023-08-06T08:59:59;17.80;99.90
16829;DHT22;8531;48.078;11.968;2023-08-06T09:02:28;17.70;99.90
16829;DHT22;8531;48.078;11.968;2023-08-06T09:04:57;17.80;99.90
16829;DHT22;8531;48.078;11.968;2023-08-06T09:07:25;17.80;99.90
16829;DHT22;8531;48.078;11.968;2023-08-06T09:09:52;17.50;99.90
16829;DHT22;8531;48.078;11.968;2023-08-06T09:12:18;17.40;99.90
16829;DHT22;8531;48.078;11.968;2023-08-06T09:14:44;17.30;99.90
16829;DHT22;8531;48.078;11.968;2023-08-06T09:17:10;17.10;99.90
16829;DHT22;8531;48.078;11.968;2023-08-06T09:19:36;16.90;99.90
16829;DHT22;8531;48.078;11.968;2023-08-06T09:22:02;16.70;99.90
16829;DHT22;8531;48.078;11.968;2023-08-06T09:24:28;16.60;99.90
16829;DHT22;8531;48.078;11.968;2023-08-06T09:26:54;16.50;99.90
16829;DHT22;8531;48.078;11.968;2023-08-06T09:29:20;16.50;99.90
16829;DHT22;8531;48.078;11.968;2023-08-06T09:31:49;16.80;99.90
16829;DHT22;8531;48.078;11.968;2023-08-06T09:34:22;17.30;99.90
16829;DHT22;8531;48.078;11.968;2023-08-06T09:36:52;17.70;99.90
16829;DHT22;8531;48.078;11.968;2023-08-06T09:39:28;17.70;99.90
16829;DHT22;8531;48.078;11.968;2023-08-06T09:41:58;17.70;99.90
16829;DHT22;8531;48.078;11.968;2023-08-06T09:44:26;17.60;99.90
16829;DHT22;8531;48.078;11.968;2023-08-06T09:46:57;17.50;99.90
16829;DHT22;8531;48.078;11.968;2023-08-06T09:49:28;17.20;99.90
16829;DHT22;8531;48.078;11.968;2023-08-06T09:51:54;16.90;99.90
16829;DHT22;8531;48.078;11.968;2023-08-06T09:54:26;16.90;99.90
16829;DHT22;8531;48.078;11.968;2023-08-06T09:56:53;16.80;99.90
16829;DHT22;8531;48.078;11.968;2023-08-06T09:59:19;16.80;99.90
16829;DHT22;8531;48.078;11.968;2023-08-06T10:01:46;16.70;99.90
16829;DHT22;8531;48.078;11.968;2023-08-06T10:04:13;16.80;99.90
16829;DHT22;8531;48.078;11.968;2023-08-06T10:06:42;16.60;99.90
16829;DHT22;8531;48.078;11.968;2023-08-06T10:09:08;16.70;99.90
16829;DHT22;8531;48.078;11.968;2023-08-06T10:11:36;16.80;99.90
16829;DHT22;8531;48.078;11.968;2023-08-06T10:14:12;16.90;99.90
16829;DHT22;8531;48.078;11.968;2023-08-06T10:16:40;17.10;99.90
16829;DHT22;8531;48.078;11.968;2023-08-06T10:19:09;17.20;99.90
16829;DHT22;8531;48.078;11.968;2023-08-06T10:21:35;17.60;99.90
16829;DHT22;8531;48.078;11.968;2023-08-06T10:24:00;17.70;99.90
16829;DHT22;8531;48.078;11.968;2023-08-06T10:26:28;17.70;99.90
16829;DHT22;8531;48.078;11.968;2023-08-06T10:28:54;17.70;99.90
16829;DHT22;8531;48.078;11.968;2023-08-06T10:31:58;17.70;99.90
16829;DHT22;8531;48.078;11.968;2023-08-06T10:34:25;17.40;99.90
16829;DHT22;8531;48.078;11.968;2023-08-06T10:36:55;17.20;99.90
16829;DHT22;8531;48.078;11.968;2023-08-06T10:39:20;17.10;99.90
16829;DHT22;8531;48.078;11.968;2023-08-06T10:41:46;16.90;99.90
16829;DHT22;8531;48.078;11.968;2023-08-06T10:44:12;16.70;99.90
16829;DHT22;8531;48.078;11.968;2023-08-06T10:46:37;16.80;99.90
16829;DHT22;8531;48.078;11.968;2023-08-06T10:49:04;16.90;99.90
16829;DHT22;8531;48.078;11.968;2023-08-06T10:51:30;16.70;99.90
16829;DHT22;8531;48.078;11.968;2023-08-06T10:53:56;16.60;99.90
16829;DHT22;8531;48.078;11.968;2023-08-06T10:56:25;16.60;99.90
16829;DHT22;8531;48.078;11.968;2023-08-06T10:58:55;16.70;99.90
16829;DHT22;8531;48.078;11.968;2023-08-06T11:01:24;16.60;99.90
16829;DHT22;8531;48.078;11.968;2023-08-06T11:03:50;16.50;99.90
16829;DHT22;8531;48.078;11.968;2023-08-06T11:06:19;16.50;99.90
16829;DHT22;8531;48.078;11.968;2023-08-06T11:08:52;16.40;99.90
16829;DHT22;8531;48.078;11.968;2023-08-06T11:11:18;16.40;99.90
16829;DHT22;8531;48.078;11.968;2023-08-06T11:13:49;16.50;99.90
16829;DHT22;8531;48.078;11.968;2023-08-06T11:16:22;16.40;99.90
16829;DHT22;8531;48.078;11.968;2023-08-06T11:18:51;16.30;99.90
16829;DHT22;8531;48.078;11.968;2023-08-06T11:21:21;16.30;99.90
16829;DHT22;8531;48.078;11.968;2023-08-06T11:23:47;16.20;99.90
16829;DHT22;8531;48.078;11.968;2023-08-06T11:26:13;16.30;99.90
16829;DHT22;8531;48.078;11.968;2023-08-06T11:28:43;16.40;99.90
16829;DHT22;8531;48.078;11.968;2023-08-06T11:31:19;16.40;99.90
16829;DHT22;8531;48.078;11.968;2023-08-06T11:33:44;16.50;99.90
16829;DHT22;8531;48.078;11.968;2023-08-06T11:36:10;16.60;99.90
16829;DHT22;8531;48.078;11.968;2023-08-06T11:38:36;16.70;99.90
16829;DHT22;8531;48.078;11.968;2023-08-06T11:41:01;16.70;99.90
16829;DHT22;8531;48.078;11.968;2023-08-06T11:43:30;16.60;99.90
16829;DHT22;8531;48.078;11.968;2023-08-06T11:45:56;16.70;99.90
16829;DHT22;8531;48.078;11.968;2023-08-06T11:48:22;16.70;99.90
16829;DHT22;8531;48.078;11.968;2023-08-06T11:50:47;16.70;99.90
16829;DHT22;8531;48.078;11.968;2023-08-06T11:53:14;16.60;99.90
16829;DHT22;8531;48.078;11.968;2023-08-06T11:55:40;16.50;99.90
16829;DHT22;8531;48.078;11.968;2023-08-06T11:58:06;16.40;99.90
16829;DHT22;8531;48.078;11.968;2023-08-06T12:00:32;16.40;99.90
16829;DHT22;8531;48.078;11.968;2023-08-06T12:02:58;16.40;99.90
16829;DHT22;8531;48.078;11.968;2023-08-06T12:05:29;16.40;99.90
16829;DHT22;8531;48.078;11.968;2023-08-06T12:07:59;16.30;99.90
16829;DHT22;8531;48.078;11.968;2023-08-06T12:10:28;16.20;99.90
16829;DHT22;8531;48.078;11.968;2023-08-06T12:12:54;16.20;99.90
16829;DHT22;8531;48.078;11.968;2023-08-06T12:15:19;16.40;99.90
16829;DHT22;8531;48.078;11.968;2023-08-06T12:17:45;16.70;99.90
16829;DHT22;8531;48.078;11.968;2023-08-06T12:20:11;16.90;99.90
16829;DHT22;8531;48.078;11.968;2023-08-06T12:22:38;17.00;99.90
16829;DHT22;8531;48.078;11.968;2023-08-06T12:25:06;17.00;99.90
16829;DHT22;8531;48.078;11.968;2023-08-06T12:27:36;16.90;99.90
16829;DHT22;8531;48.078;11.968;2023-08-06T12:30:03;16.80;99.90
16829;DHT22;8531;48.078;11.968;2023-08-06T12:32:29;16.80;99.90
16829;DHT22;8531;48.078;11.968;2023-08-06T12:34:55;16.60;99.90
16829;DHT22;8531;48.078;11.968;2023-08-06T12:37:21;16.60;99.90
16829;DHT22;8531;48.078;11.968;2023-08-06T12:39:48;16.60;99.90
16829;DHT22;8531;48.078;11.968;2023-08-06T12:42:14;16.60;99.90
16829;DHT22;8531;48.078;11.968;2023-08-06T12:44:39;16.50;99.90
16829;DHT22;8531;48.078;11.968;2023-08-06T12:47:06;16.40;99.90
16829;DHT22;8531;48.078;11.968;2023-08-06T12:49:32;16.50;99.90
16829;DHT22;8531;48.078;11.968;2023-08-06T12:51:58;16.50;99.90
16829;DHT22;8531;48.078;11.968;2023-08-06T12:54:25;16.50;99.90
16829;DHT22;8531;48.078;11.968;2023-08-06T12:56:51;16.50;99.90
16829;DHT22;8531;48.078;11.968;2023-08-06T12:59:18;16.50;99.90
16829;DHT22;8531;48.078;11.968;2023-08-06T13:01:44;16.70;99.90
16829;DHT22;8531;48.078;11.968;2023-08-06T13:04:10;16.80;99.90
16829;DHT22;8531;48.078;11.968;2023-08-06T13:06:36;16.80;99.90
16829;DHT22;8531;48.078;11.968;2023-08-06T13:09:11;16.70;99.90
16829;DHT22;8531;48.078;11.968;2023-08-06T13:11:39;16.60;99.90
16829;DHT22;8531;48.078;11.968;2023-08-06T13:14:09;16.30;99.90
16829;DHT22;8531;48.078;11.968;2023-08-06T13:16:36;16.20;99.90
16829;DHT22;8531;48.078;11.968;2023-08-06T13:19:03;16.10;99.90
16829;DHT22;8531;48.078;11.968;2023-08-06T13:24:17;16.30;99.90
16829;DHT22;8531;48.078;11.968;2023-08-06T13:26:43;16.20;99.90
16829;DHT22;8531;48.078;11.968;2023-08-06T13:29:09;16.30;99.90
16829;DHT22;8531;48.078;11.968;2023-08-06T13:31:36;16.30;99.90
16829;DHT22;8531;48.078;11.968;2023-08-06T13:34:02;16.30;99.90
16829;DHT22;8531;48.078;11.968;2023-08-06T13:36:28;16.40;99.90
16829;DHT22;8531;48.078;11.968;2023-08-06T13:38:54;16.60;99.90
16829;DHT22;8531;48.078;11.968;2023-08-06T13:41:20;17.00;99.90
16829;DHT22;8531;48.078;11.968;2023-08-06T13:43:45;17.30;99.90
16829;DHT22;8531;48.078;11.968;2023-08-06T13:46:12;17.80;99.90
16829;DHT22;8531;48.078;11.968;2023-08-06T13:48:45;17.80;99.90
16829;DHT22;8531;48.078;11.968;2023-08-06T13:51:12;17.60;99.90
16829;DHT22;8531;48.078;11.968;2023-08-06T13:53:39;17.50;99.90
16829;DHT22;8531;48.078;11.968;2023-08-06T13:56:09;17.30;99.90
16829;DHT22;8531;48.078;11.968;2023-08-06T13:58:40;17.10;99.90
16829;DHT22;8531;48.078;11.968;2023-08-06T14:01:06;17.00;99.90
16829;DHT22;8531;48.078;11.968;2023-08-06T14:03:32;16.90;99.90
16829;DHT22;8531;48.078;11.968;2023-08-06T14:05:58;16.70;99.90
16829;DHT22;8531;48.078;11.968;2023-08-06T14:08:24;16.40;99.90
16829;DHT22;8531;48.078;11.968;2023-08-06T14:10:51;16.40;99.90
16829;DHT22;8531;48.078;11.968;2023-08-06T14:13:17;16.70;99.90
16829;DHT22;8531;48.078;11.968;2023-08-06T14:15:43;17.10;99.90
16829;DHT22;8531;48.078;11.968;2023-08-06T14:18:12;17.30;99.90
16829;DHT22;8531;48.078;11.968;2023-08-06T14:20:38;17.20;99.90
16829;DHT22;8531;48.078;11.968;2023-08-06T14:23:04;16.80;99.90
16829;DHT22;8531;48.078;11.968;2023-08-06T14:25:29;16.70;99.90
16829;DHT22;8531;48.078;11.968;2023-08-06T14:27:55;16.50;99.90
16829;DHT22;8531;48.078;11.968;2023-08-06T14:30:21;16.60;99.90
16829;DHT22;8531;48.078;11.968;2023-08-06T14:32:46;16.40;99.90
16829;DHT22;8531;48.078;11.968;2023-08-06T14:35:12;16.30;99.90
16829;DHT22;8531;48.078;11.968;2023-08-06T14:37:38;16.00;99.90
16829;DHT22;8531;48.078;11.968;2023-08-06T14:40:05;16.00;99.90
16829;DHT22;8531;48.078;11.968;2023-08-06T14:42:31;16.10;99.90
16829;DHT22;8531;48.078;11.968;2023-08-06T14:44:56;16.00;99.90
16829;DHT22;8531;48.078;11.968;2023-08-06T14:47:23;16.00;99.90
16829;DHT22;8531;48.078;11.968;2023-08-06T14:49:48;15.80;99.90
16829;DHT22;8531;48.078;11.968;2023-08-06T14:52:15;15.80;99.90
16829;DHT22;8531;48.078;11.968;2023-08-06T14:54:41;15.70;99.90
16829;DHT22;8531;48.078;11.968;2023-08-06T14:57:06;15.50;99.90
16829;DHT22;8531;48.078;11.968;2023-08-06T14:59:33;15.40;99.90
16829;DHT22;8531;48.078;11.968;2023-08-06T15:01:59;15.50;99.90
16829;DHT22;8531;48.078;11.968;2023-08-06T15:04:25;15.40;99.90
16829;DHT22;8531;48.078;11.968;2023-08-06T15:06:50;15.40;99.90
16829;DHT22;8531;48.078;11.968;2023-08-06T15:09:16;15.20;99.90
16829;DHT22;8531;48.078;11.968;2023-08-06T15:11:42;15.10;99.90
16829;DHT22;8531;48.078;11.968;2023-08-06T15:14:08;15.10;99.90
16829;DHT22;8531;48.078;11.968;2023-08-06T15:16:33;15.10;99.90
16829;DHT22;8531;48.078;11.968;2023-08-06T15:19:00;15.00;99.90
16829;DHT22;8531;48.078;11.968;2023-08-06T15:21:27;14.80;99.90
16829;DHT22;8531;48.078;11.968;2023-08-06T15:23:52;14.70;99.90
16829;DHT22;8531;48.078;11.968;2023-08-06T15:26:18;14.70;99.90
16829;DHT22;8531;48.078;11.968;2023-08-06T15:28:44;14.70;99.90
16829;DHT22;8531;48.078;11.968;2023-08-06T15:31:10;14.70;99.90
16829;DHT22;8531;48.078;11.968;2023-08-06T15:33:35;14.60;99.90
16829;DHT22;8531;48.078;11.968;2023-08-06T15:36:01;14.70;99.90